sensor_id;sensor_type;location;lat;lon;timestamp;temperature;humidity
23289;DHT22;11813;50.834;4.280;2024-02-04T00:00:28;10.90;99.90
23289;DHT22;11813;50.834;4.280;2024-02-04T00:02:54;10.90;99.90
23289;DHT22;11813;50.834;4.280;2024-02-04T00:05:19;10.90;99.90
23289;DHT22;11813;50.834;4.280;2024-02-04T00:07:45;10.90;99.90
23289;DHT22;11813;50.834;4.280;2024-02-04T00:10:11;11.00;99.90
23289;DHT22;11813;50.834;4.280;2024-02-04T00:12:37;11.00;99.90
23289;DHT22;11813;50.834;4.280;2024-02-04T00:15:04;11.00;99.90
23289;DHT22;11813;50.834;4.280;2024-02-04T00:17:30;11.10;99.90
23289;DHT22;11813;50.834;4.280;2024-02-04T00:19:59;11.00;99.90
23289;DHT22;11813;50.834;4.280;2024-02-04T00:22:24;11.10;99.90
23289;DHT22;11813;50.834;4.280;2024-02-04T00:24:50;11.10;99.90
23289;DHT22;11813;50.834;4.280;2024-02-04T00:27:16;11.00;99.90
23289;DHT22;11813;50.834;4.280;2024-02-04T00:29:41;11.00;99.90
23289;DHT22;11813;50.834;4.280;2024-02-04T00:32:07;11.00;99.90
23289;DHT22;11813;50.834;4.280;2024-02-04T00:34:33;11.10;99.90
23289;DHT22;11813;50.834;4.280;2024-02-04T00:36:58;11.10;99.90
23289;DHT22;11813;50.834;4.280;2024-02-04T00:39:25;11.10;99.90
23289;DHT22;11813;50.834;4.280;2024-02-04T00:41:51;11.10;99.90
23289;DHT22;11813;50.834;4.280;2024-02-04T00:44:17;11.00;99.90
23289;DHT22;11813;50.834;4.280;2024-02-04T00:46:42;11.00;99.90
23289;DHT22;11813;50.834;4.280;2024-02-04T00:49:08;11.00;99.90
23289;DHT22;11813;50.834;4.280;2024-02-04T00:51:33;11.00;99.90
23289;DHT22;11813;50.834;4.280;2024-02-04T00:53:59;11.00;99.90
23289;DHT22;11813;50.834;4.280;2024-02-04T00:56:25;11.00;99.90
23289;DHT22;11813;50.834;4.280;2024-02-04T00:58:50;11.00;99.90
23289;DHT22;11813;50.834;4.280;2024-02-04T01:01:16;11.00;99.90
23289;DHT22;11813;50.834;4.280;2024-02-04T01:03:42;11.00;99.90
23289;DHT22;11813;50.834;4.280;2024-02-04T01:06:08;11.00;99.90
23289;DHT22;11813;50.834;4.280;2024-02-04T01:08:33;11.00;99.90
23289;DHT22;11813;50.834;4.280;2024-02-04T01:11:00;11.00;99.90
23289;DHT22;11813;50.834;4.280;2024-02-04T01:13:27;11.00;99.90
23289;DHT22;11813;50.834;4.280;2024-02-04T01:15:53;11.00;99.90
23289;DHT22;11813;50.834;4.280;2024-02-04T01:18:18;11.00;99.90
23289;DHT22;11813;50.834;4.280;2024-02-04T01:20:44;11.00;99.90
23289;DHT22;11813;50.834;4.280;2024-02-04T01:23:09;11.10;99.90
23289;DHT22;11813;50.834;4.280;2024-02-04T01:25:35;11.10;99.90
23289;DHT22;11813;50.834;4.280;2024-02-04T01:28:01;11.10;99.90
23289;DHT22;11813;50.834;4.280;2024-02-04T01:30:26;11.10;99.90
23289;DHT22;11813;50.834;4.280;2024-02-04T01:32:54;11.20;99.90
23289;DHT22;11813;50.834;4.280;2024-02-04T01:35:19;11.10;99.90
23289;DHT22;11813;50.834;4.280;2024-02-04T01:37:45;11.10;99.90
23289;DHT22;11813;50.834;4.280;2024-02-04T01:40:14;11.10;99.90
23289;DHT22;11813;50.834;4.280;2024-02-04T01:42:39;11.10;99.90
23289;DHT22;11813;50.834;4.280;2024-02-04T01:45:05;11.10;99.90
23289;DHT22;11813;50.834;4.280;2024-02-04T01:47:31;11.10;99.90
23289;DHT22;11813;50.834;4.280;2024-02-04T01:49:57;11.20;99.90
23289;DHT22;11813;50.834;4.280;2024-02-04T01:52:22;11.20;99.90
23289;DHT22;11813;50.834;4.280;2024-02-04T01:54:49;11.10;99.90
23289;DHT22;11813;50.834;4.280;2024-02-04T01:57:16;11.10;99.90
23289;DHT22;11813;50.834;4.280;2024-02-04T01:59:42;11.10;99.90
23289;DHT22;11813;50.834;4.280;2024-02-04T02:02:09;11.10;99.90
23289;DHT22;11813;50.834;4.280;2024-02-04T02:04:35;11.20;99.90
23289;DHT22;11813;50.834;4.280;2024-02-04T02:07:00;11.20;99.90
23289;DHT22;11813;50.834;4.280;2024-02-04T02:09:28;11.20;99.90
23289;DHT22;11813;50.834;4.280;2024-02-04T02:14:33;11.20;99.90
23289;DHT22;11813;50.834;4.280;2024-02-04T02:17:07;11.20;99.90
23289;DHT22;11813;50.834;4.280;2024-02-04T02:19:57;11.30;99.90
23289;DHT22;11813;50.834;4.280;2024-02-04T02:22:29;11.30;99.90
23289;DHT22;11813;50.834;4.280;2024-02-04T02:25:02;11.20;99.90
23289;DHT22;11813;50.834;4.280;2024-02-04T02:27:30;11.30;99.90
23289;DHT22;11813;50.834;4.280;2024-02-04T02:29:56;11.20;99.90
23289;DHT22;11813;50.834;4.280;2024-02-04T02:32:22;11.30;99.90
23289;DHT22;11813;50.834;4.280;2024-02-04T02:34:48;11.20;99.90
23289;DHT22;11813;50.834;4.280;2024-02-04T02:37:27;11.20;99.90
23289;DHT22;11813;50.834;4.280;2024-02-04T02:40:23;11.20;99.90
23289;DHT22;11813;50.834;4.280;2024-02-04T02:42:52;11.20;99.90
23289;DHT22;11813;50.834;4.280;2024-02-04T02:45:20;11.10;99.90
23289;DHT22;11813;50.834;4.280;2024-02-04T02:47:47;11.10;99.90
23289;DHT22;11813;50.834;4.280;2024-02-04T02:50:13;11.10;99.90
23289;DHT22;11813;50.834;4.280;2024-02-04T02:52:39;11.10;99.90
23289;DHT22;11813;50.834;4.280;2024-02-04T02:55:05;11.10;99.90
23289;DHT22;11813;50.834;4.280;2024-02-04T02:57:31;11.00;99.90
23289;DHT22;11813;50.834;4.280;2024-02-04T02:59:57;11.00;99.90
23289;DHT22;11813;50.834;4.280;2024-02-04T03:02:22;11.10;99.90
23289;DHT22;11813;50.834;4.280;2024-02-04T03:04:48;11.00;99.90
23289;DHT22;11813;50.834;4.280;2024-02-04T03:07:13;11.00;99.90
23289;DHT22;11813;50.834;4.280;2024-02-04T03:09:39;11.10;99.90
23289;DHT22;11813;50.834;4.280;2024-02-04T03:12:05;11.10;99.90
23289;DHT22;11813;50.834;4.280;2024-02-04T03:14:31;11.10;99.90
23289;DHT22;11813;50.834;4.280;2024-02-04T03:16:56;11.10;99.90
23289;DHT22;11813;50.834;4.280;2024-02-04T03:19:22;11.10;99.90
23289;DHT22;11813;50.834;4.280;2024-02-04T03:21:48;11.10;99.90
23289;DHT22;11813;50.834;4.280;2024-02-04T03:24:13;11.10;99.90
23289;DHT22;11813;50.834;4.280;2024-02-04T03:26:39;11.20;99.90
23289;DHT22;11813;50.834;4.280;2024-02-04T03:29:05;11.20;99.90
23289;DHT22;11813;50.834;4.280;2024-02-04T03:31:31;11.20;99.90
23289;DHT22;11813;50.834;4.280;2024-02-04T03:33:56;11.30;99.90
23289;DHT22;11813;50.834;4.280;2024-02-04T03:36:23;11.30;99.90
23289;DHT22;11813;50.834;4.280;2024-02-04T03:38:52;11.30;99.90
23289;DHT22;11813;50.834;4.280;2024-02-04T03:41:18;11.30;99.90
23289;DHT22;11813;50.834;4.280;2024-02-04T03:43:44;11.40;99.90
23289;DHT22;11813;50.834;4.280;2024-02-04T03:46:14;11.30;99.90
23289;DHT22;11813;50.834;4.280;2024-02-04T03:48:40;11.30;99.90
23289;DHT22;11813;50.834;4.280;2024-02-04T03:51:06;11.20;99.90
23289;DHT22;11813;50.834;4.280;2024-02-04T03:53:31;11.20;99.90
23289;DHT22;11813;50.834;4.280;2024-02-04T03:55:57;11.20;99.90
23289;DHT22;11813;50.834;4.280;2024-02-04T03:58:23;11.20;99.90
23289;DHT22;11813;50.834;4.280;2024-02-04T04:00:55;11.20;99.90
23289;DHT22;11813;50.834;4.280;2024-02-04T04:03:21;11.20;99.90
23289;DHT22;11813;50.834;4.280;2024-02-04T04:05:47;11.20;99.90
23289;DHT22;11813;50.834;4.280;2024-02-04T04:08:13;11.30;99.90
23289;DHT22;11813;50.834;4.280;2024-02-04T04:10:38;11.30;99.90
23289;DHT22;11813;50.834;4.280;2024-02-04T04:13:04;11.30;99.90
23289;DHT22;11813;50.834;4.280;2024-02-04T04:15:30;11.30;99.90
23289;DHT22;11813;50.834;4.280;2024-02-04T04:17:55;11.20;99.90
23289;DHT22;11813;50.834;4.280;2024-02-04T04:20:21;11.30;99.90
23289;DHT22;11813;50.834;4.280;2024-02-04T04:22:46;11.30;99.90
23289;DHT22;11813;50.834;4.280;2024-02-04T04:25:12;11.40;99.90
23289;DHT22;11813;50.834;4.280;2024-02-04T04:27:39;11.40;99.90
23289;DHT22;11813;50.834;4.280;2024-02-04T04:30:05;11.30;99.90
23289;DHT22;11813;50.834;4.280;2024-02-04T04:32:31;11.30;99.90
23289;DHT22;11813;50.834;4.280;2024-02-04T04:34:57;11.20;99.90
23289;DHT22;11813;50.834;4.280;2024-02-04T04:37:23;11.20;99.90
23289;DHT22;11813;50.834;4.280;2024-02-04T04:39:48;11.10;99.90
23289;DHT22;11813;50.834;4.280;2024-02-04T04:42:14;11.10;99.90
23289;DHT22;11813;50.834;4.280;2024-02-04T04:44:40;11.10;99.90
23289;DHT22;11813;50.834;4.280;2024-02-04T04:47:05;11.10;99.90
23289;DHT22;11813;50.834;4.280;2024-02-04T04:49:31;11.10;99.90
23289;DHT22;11813;50.834;4.280;2024-02-04T04:51:57;11.10;99.90
23289;DHT22;11813;50.834;4.280;2024-02-04T04:54:23;11.10;99.90
23289;DHT22;11813;50.834;4.280;2024-02-04T04:56:48;11.10;99.90
23289;DHT22;11813;50.834;4.280;2024-02-04T04:59:15;11.10;99.90
23289;DHT22;11813;50.834;4.280;2024-02-04T05:01:47;11.20;99.90
23289;DHT22;11813;50.834;4.280;2024-02-04T05:04:14;11.20;99.90
23289;DHT22;11813;50.834;4.280;2024-02-04T05:06:40;11.20;99.90
23289;DHT22;11813;50.834;4.280;2024-02-04T05:09:06;11.20;99.90
23289;DHT22;11813;50.834;4.280;2024-02-04T05:11:31;11.20;99.90
23289;DHT22;11813;50.834;4.280;2024-02-04T05:13:57;11.20;99.90
23289;DHT22;11813;50.834;4.280;2024-02-04T05:16:22;11.10;99.90
23289;DHT22;11813;50.834;4.280;2024-02-04T05:18:48;11.20;99.90
23289;DHT22;11813;50.834;4.280;2024-02-04T05:21:14;11.20;99.90
23289;DHT22;11813;50.834;4.280;2024-02-04T05:23:39;11.10;99.90
23289;DHT22;11813;50.834;4.280;2024-02-04T05:26:05;11.10;99.90
23289;DHT22;11813;50.834;4.280;2024-02-04T05:28:32;11.00;99.90
23289;DHT22;11813;50.834;4.280;2024-02-04T05:30:58;11.10;99.90
23289;DHT22;11813;50.834;4.280;2024-02-04T05:33:23;11.10;99.90
23289;DHT22;11813;50.834;4.280;2024-02-04T05:35:49;11.10;99.90
23289;DHT22;11813;50.834;4.280;2024-02-04T05:38:16;11.10;99.90
23289;DHT22;11813;50.834;4.280;2024-02-04T05:40:42;11.10;99.90
23289;DHT22;11813;50.834;4.280;2024-02-04T05:43:08;11.10;99.90
23289;DHT22;11813;50.834;4.280;2024-02-04T05:45:38;11.20;99.90
23289;DHT22;11813;50.834;4.280;2024-02-04T05:48:07;11.20;99.90
23289;DHT22;11813;50.834;4.280;2024-02-04T05:50:32;11.20;99.90
23289;DHT22;11813;50.834;4.280;2024-02-04T05:52:58;11.20;99.90
23289;DHT22;11813;50.834;4.280;2024-02-04T05:55:24;11.20;99.90
23289;DHT22;11813;50.834;4.280;2024-02-04T05:57:49;11.20;99.90
23289;DHT22;11813;50.834;4.280;2024-02-04T06:00:15;11.20;99.90
23289;DHT22;11813;50.834;4.280;2024-02-04T06:02:41;11.10;99.90
23289;DHT22;11813;50.834;4.280;2024-02-04T06:05:09;11.10;99.90
23289;DHT22;11813;50.834;4.280;2024-02-04T06:07:35;11.10;99.90
23289;DHT22;11813;50.834;4.280;2024-02-04T06:10:00;11.10;99.90
23289;DHT22;11813;50.834;4.280;2024-02-04T06:12:29;11.20;99.90
23289;DHT22;11813;50.834;4.280;2024-02-04T06:14:54;11.20;99.90
23289;DHT22;11813;50.834;4.280;2024-02-04T06:17:20;11.20;99.90
23289;DHT22;11813;50.834;4.280;2024-02-04T06:19:46;11.20;99.90
23289;DHT22;11813;50.834;4.280;2024-02-04T06:22:11;11.10;99.90
23289;DHT22;11813;50.834;4.280;2024-02-04T06:24:37;11.20;99.90
23289;DHT22;11813;50.834;4.280;2024-02-04T06:27:04;11.20;99.90
23289;DHT22;11813;50.834;4.280;2024-02-04T06:29:30;11.10;99.90
23289;DHT22;11813;50.834;4.280;2024-02-04T06:31:56;11.10;99.90
23289;DHT22;11813;50.834;4.280;2024-02-04T06:34:21;11.10;99.90
23289;DHT22;11813;50.834;4.280;2024-02-04T06:36:47;11.10;99.90
23289;DHT22;11813;50.834;4.280;2024-02-04T06:39:13;11.10;99.90
23289;DHT22;11813;50.834;4.280;2024-02-04T06:41:39;11.10;99.90
23289;DHT22;11813;50.834;4.280;2024-02-04T06:44:07;11.10;99.90
23289;DHT22;11813;50.834;4.280;2024-02-04T06:46:32;11.10;99.90
23289;DHT22;11813;50.834;4.280;2024-02-04T06:48:58;11.10;99.90
23289;DHT22;11813;50.834;4.280;2024-02-04T06:51:24;11.10;99.90
23289;DHT22;11813;50.834;4.280;2024-02-04T06:53:49;11.10;99.90
23289;DHT22;11813;50.834;4.280;2024-02-04T06:56:15;11.10;99.90
23289;DHT22;11813;50.834;4.280;2024-02-04T06:58:42;11.10;99.90
23289;DHT22;11813;50.834;4.280;2024-02-04T07:01:08;11.10;99.90
23289;DHT22;11813;50.834;4.280;2024-02-04T07:03:34;11.10;99.90
23289;DHT22;11813;50.834;4.280;2024-02-04T07:06:00;11.10;99.90
23289;DHT22;11813;50.834;4.280;2024-02-04T07:08:26;11.00;99.90
23289;DHT22;11813;50.834;4.280;2024-02-04T07:10:52;11.10;99.90
23289;DHT22;11813;50.834;4.280;2024-02-04T07:13:18;11.10;99.90
23289;DHT22;11813;50.834;4.280;2024-02-04T07:15:43;11.10;99.90
23289;DHT22;11813;50.834;4.280;2024-02-04T07:18:10;11.00;99.90
23289;DHT22;11813;50.834;4.280;2024-02-04T07:20:35;11.00;99.90
23289;DHT22;11813;50.834;4.280;2024-02-04T07:23:01;11.00;99.90
23289;DHT22;11813;50.834;4.280;2024-02-04T07:25:27;11.00;99.90
23289;DHT22;11813;50.834;4.280;2024-02-04T07:27:54;11.00;99.90
23289;DHT22;11813;50.834;4.280;2024-02-04T07:30:19;11.00;99.90
23289;DHT22;11813;50.834;4.280;2024-02-04T07:32:46;11.00;99.90
23289;DHT22;11813;50.834;4.280;2024-02-04T07:35:12;11.00;99.90
23289;DHT22;11813;50.834;4.280;2024-02-04T07:37:37;11.00;99.90
23289;DHT22;11813;50.834;4.280;2024-02-04T07:40:04;11.00;99.90
23289;DHT22;11813;50.834;4.280;2024-02-04T07:42:32;11.00;99.90
23289;DHT22;11813;50.834;4.280;2024-02-04T07:44:58;11.10;99.90
23289;DHT22;11813;50.834;4.280;2024-02-04T07:47:23;11.10;99.90
23289;DHT22;11813;50.834;4.280;2024-02-04T07:49:49;11.10;99.90
23289;DHT22;11813;50.834;4.280;2024-02-04T07:52:15;11.10;99.90
23289;DHT22;11813;50.834;4.280;2024-02-04T07:54:41;11.10;99.90
23289;DHT22;11813;50.834;4.280;2024-02-04T07:57:08;11.10;99.90
23289;DHT22;11813;50.834;4.280;2024-02-04T07:59:34;11.10;99.90
23289;DHT22;11813;50.834;4.280;2024-02-04T08:02:00;11.20;99.90
23289;DHT22;11813;50.834;4.280;2024-02-04T08:04:26;11.20;99.90
23289;DHT22;11813;50.834;4.280;2024-02-04T08:06:52;11.10;99.90
23289;DHT22;11813;50.834;4.280;2024-02-04T08:09:18;11.10;99.90
23289;DHT22;11813;50.834;4.280;2024-02-04T08:11:44;11.10;99.90
23289;DHT22;11813;50.834;4.280;2024-02-04T08:14:09;11.20;99.90
23289;DHT22;11813;50.834;4.280;2024-02-04T08:16:35;11.20;99.90
23289;DHT22;11813;50.834;4.280;2024-02-04T08:19:00;11.20;99.90
23289;DHT22;11813;50.834;4.280;2024-02-04T08:21:27;11.20;99.90
23289;DHT22;11813;50.834;4.280;2024-02-04T08:23:53;11.20;99.90
23289;DHT22;11813;50.834;4.280;2024-02-04T08:26:19;11.20;99.90
23289;DHT22;11813;50.834;4.280;2024-02-04T08:28:44;11.20;99.90
23289;DHT22;11813;50.834;4.280;2024-02-04T08:31:10;11.20;99.90
23289;DHT22;11813;50.834;4.280;2024-02-04T08:33:36;11.20;99.90
23289;DHT22;11813;50.834;4.280;2024-02-04T08:36:02;11.20;99.90
23289;DHT22;11813;50.834;4.280;2024-02-04T08:38:27;11.20;99.90
23289;DHT22;11813;50.834;4.280;2024-02-04T08:40:53;11.20;99.90
23289;DHT22;11813;50.834;4.280;2024-02-04T08:43:19;11.30;99.90
23289;DHT22;11813;50.834;4.280;2024-02-04T08:45:44;11.30;99.90
23289;DHT22;11813;50.834;4.280;2024-02-04T08:48:10;11.30;99.90
23289;DHT22;11813;50.834;4.280;2024-02-04T08:50:35;11.30;99.90
23289;DHT22;11813;50.834;4.280;2024-02-04T08:53:01;11.40;99.90
23289;DHT22;11813;50.834;4.280;2024-02-04T08:55:27;11.40;99.90
23289;DHT22;11813;50.834;4.280;2024-02-04T08:57:52;11.40;99.90
23289;DHT22;11813;50.834;4.280;2024-02-04T09:00:19;11.40;99.90
23289;DHT22;11813;50.834;4.280;2024-02-04T09:02:45;11.30;99.90
23289;DHT22;11813;50.834;4.280;2024-02-04T09:05:12;11.30;99.90
23289;DHT22;11813;50.834;4.280;2024-02-04T09:07:38;11.40;99.90
23289;DHT22;11813;50.834;4.280;2024-02-04T09:10:04;11.40;99.90
23289;DHT22;11813;50.834;4.280;2024-02-04T09:12:30;11.40;99.90
23289;DHT22;11813;50.834;4.280;2024-02-04T09:14:56;11.40;99.90
23289;DHT22;11813;50.834;4.280;2024-02-04T09:17:22;11.40;99.90
23289;DHT22;11813;50.834;4.280;2024-02-04T09:19:47;11.40;99.90
23289;DHT22;11813;50.834;4.280;2024-02-04T09:22:14;11.40;99.90
23289;DHT22;11813;50.834;4.280;2024-02-04T09:24:40;11.40;99.90
23289;DHT22;11813;50.834;4.280;2024-02-04T09:27:05;11.50;99.90
23289;DHT22;11813;50.834;4.280;2024-02-04T09:29:31;11.50;99.90
23289;DHT22;11813;50.834;4.280;2024-02-04T09:31:56;11.50;99.90
23289;DHT22;11813;50.834;4.280;2024-02-04T09:34:22;11.50;99.90
23289;DHT22;11813;50.834;4.280;2024-02-04T09:36:48;11.50;99.90
23289;DHT22;11813;50.834;4.280;2024-02-04T09:39:13;11.50;99.90
23289;DHT22;11813;50.834;4.280;2024-02-04T09:41:39;11.50;99.90
23289;DHT22;11813;50.834;4.280;2024-02-04T09:44:05;11.60;99.90
23289;DHT22;11813;50.834;4.280;2024-02-04T09:46:31;11.60;99.90
23289;DHT22;11813;50.834;4.280;2024-02-04T09:48:57;11.70;99.90
23289;DHT22;11813;50.834;4.280;2024-02-04T09:51:25;11.60;99.90
23289;DHT22;11813;50.834;4.280;2024-02-04T09:53:53;11.60;99.90
23289;DHT22;11813;50.834;4.280;2024-02-04T09:56:20;11.50;99.90
23289;DHT22;11813;50.834;4.280;2024-02-04T09:58:47;11.50;99.90
23289;DHT22;11813;50.834;4.280;2024-02-04T10:01:13;11.50;99.90
23289;DHT22;11813;50.834;4.280;2024-02-04T10:03:41;11.40;99.90
23289;DHT22;11813;50.834;4.280;2024-02-04T10:06:07;11.40;99.90
23289;DHT22;11813;50.834;4.280;2024-02-04T10:08:35;11.50;99.90
23289;DHT22;11813;50.834;4.280;2024-02-04T10:11:01;11.50;99.90
23289;DHT22;11813;50.834;4.280;2024-02-04T10:13:27;11.50;99.90
23289;DHT22;11813;50.834;4.280;2024-02-04T10:15:52;11.50;99.90
23289;DHT22;11813;50.834;4.280;2024-02-04T10:18:18;11.60;99.90
23289;DHT22;11813;50.834;4.280;2024-02-04T10:20:44;11.60;99.90
23289;DHT22;11813;50.834;4.280;2024-02-04T10:23:09;11.60;99.90
23289;DHT22;11813;50.834;4.280;2024-02-04T10:25:35;11.60;99.90
23289;DHT22;11813;50.834;4.280;2024-02-04T10:28:01;11.70;99.90
23289;DHT22;11813;50.834;4.280;2024-02-04T10:30:27;11.60;99.90
23289;DHT22;11813;50.834;4.280;2024-02-04T10:32:53;11.70;99.90
23289;DHT22;11813;50.834;4.280;2024-02-04T10:35:22;11.70;99.90
23289;DHT22;11813;50.834;4.280;2024-02-04T10:37:49;11.80;99.90
23289;DHT22;11813;50.834;4.280;2024-02-04T10:40:16;11.80;99.90
23289;DHT22;11813;50.834;4.280;2024-02-04T10:42:42;11.80;99.90
23289;DHT22;11813;50.834;4.280;2024-02-04T10:45:10;11.80;99.90
23289;DHT22;11813;50.834;4.280;2024-02-04T10:47:39;11.80;99.90
23289;DHT22;11813;50.834;4.280;2024-02-04T10:50:06;11.80;99.90
23289;DHT22;11813;50.834;4.280;2024-02-04T10:52:37;11.80;99.90
23289;DHT22;11813;50.834;4.280;2024-02-04T10:55:08;11.90;99.90
23289;DHT22;11813;50.834;4.280;2024-02-04T10:57:35;11.80;99.90
23289;DHT22;11813;50.834;4.280;2024-02-04T11:00:02;11.80;99.90
23289;DHT22;11813;50.834;4.280;2024-02-04T11:02:34;11.80;99.90
23289;DHT22;11813;50.834;4.280;2024-02-04T11:05:01;11.80;99.90
23289;DHT22;11813;50.834;4.280;2024-02-04T11:07:33;11.80;99.90
23289;DHT22;11813;50.834;4.280;2024-02-04T11:10:00;11.90;99.90
23289;DHT22;11813;50.834;4.280;2024-02-04T11:12:28;11.90;99.90
23289;DHT22;11813;50.834;4.280;2024-02-04T11:14:56;11.90;99.90
23289;DHT22;11813;50.834;4.280;2024-02-04T11:25:49;12.10;99.90
23289;DHT22;11813;50.834;4.280;2024-02-04T11:28:18;12.10;99.90
23289;DHT22;11813;50.834;4.280;2024-02-04T11:30:45;12.10;99.90
23289;DHT22;11813;50.834;4.280;2024-02-04T11:33:12;12.10;99.90
23289;DHT22;11813;50.834;4.280;2024-02-04T11:35:38;12.10;99.90
23289;DHT22;11813;50.834;4.280;2024-02-04T11:38:04;12.10;99.90
23289;DHT22;11813;50.834;4.280;2024-02-04T11:40:33;12.00;99.90
23289;DHT22;11813;50.834;4.280;2024-02-04T11:43:13;12.00;99.90
23289;DHT22;11813;50.834;4.280;2024-02-04T11:45:43;11.90;99.90
23289;DHT22;11813;50.834;4.280;2024-02-04T11:48:10;12.00;99.90
23289;DHT22;11813;50.834;4.280;2024-02-04T11:50:37;12.00;99.90
23289;DHT22;11813;50.834;4.280;2024-02-04T11:53:06;12.00;99.90
23289;DHT22;11813;50.834;4.280;2024-02-04T11:55:33;11.90;99.90
23289;DHT22;11813;50.834;4.280;2024-02-04T11:57:59;11.90;99.90
23289;DHT22;11813;50.834;4.280;2024-02-04T12:00:25;12.00;99.90
23289;DHT22;11813;50.834;4.280;2024-02-04T12:03:05;12.00;99.90
23289;DHT22;11813;50.834;4.280;2024-02-04T12:05:35;12.00;99.90
23289;DHT22;11813;50.834;4.280;2024-02-04T12:08:05;12.00;99.90
23289;DHT22;11813;50.834;4.280;2024-02-04T12:10:32;11.90;99.90
23289;DHT22;11813;50.834;4.280;2024-02-04T12:13:03;11.90;99.90
23289;DHT22;11813;50.834;4.280;2024-02-04T12:15:29;11.90;99.90
23289;DHT22;11813;50.834;4.280;2024-02-04T12:18:11;11.80;99.90
23289;DHT22;11813;50.834;4.280;2024-02-04T12:20:37;11.80;99.90
23289;DHT22;11813;50.834;4.280;2024-02-04T12:23:04;11.70;99.90
23289;DHT22;11813;50.834;4.280;2024-02-04T12:25:33;11.70;99.90
23289;DHT22;11813;50.834;4.280;2024-02-04T12:28:00;11.70;99.90
23289;DHT22;11813;50.834;4.280;2024-02-04T12:30:28;11.70;99.90
23289;DHT22;11813;50.834;4.280;2024-02-04T12:33:01;11.80;99.90
23289;DHT22;11813;50.834;4.280;2024-02-04T12:35:28;11.80;99.90
23289;DHT22;11813;50.834;4.280;2024-02-04T12:37:55;11.80;99.90
23289;DHT22;11813;50.834;4.280;2024-02-04T12:40:22;11.80;99.90
23289;DHT22;11813;50.834;4.280;2024-02-04T12:43:02;11.80;99.90
23289;DHT22;11813;50.834;4.280;2024-02-04T12:45:29;11.80;99.90
23289;DHT22;11813;50.834;4.280;2024-02-04T12:47:58;11.80;99.90
23289;DHT22;11813;50.834;4.280;2024-02-04T12:50:24;11.70;99.90
23289;DHT22;11813;50.834;4.280;2024-02-04T12:53:06;11.70;99.90
23289;DHT22;11813;50.834;4.280;2024-02-04T12:55:34;11.70;99.90
23289;DHT22;11813;50.834;4.280;2024-02-04T12:58:06;11.70;99.90
23289;DHT22;11813;50.834;4.280;2024-02-04T13:00:34;11.70;99.90
23289;DHT22;11813;50.834;4.280;2024-02-04T13:02:59;11.70;99.90
23289;DHT22;11813;50.834;4.280;2024-02-04T13:05:26;11.70;99.90
23289;DHT22;11813;50.834;4.280;2024-02-04T13:07:56;11.80;99.90
23289;DHT22;11813;50.834;4.280;2024-02-04T13:10:23;11.80;99.90
23289;DHT22;11813;50.834;4.280;2024-02-04T13:13:01;11.80;99.90
23289;DHT22;11813;50.834;4.280;2024-02-04T13:15:31;11.80;99.90
23289;DHT22;11813;50.834;4.280;2024-02-04T13:17:57;11.80;99.90
23289;DHT22;11813;50.834;4.280;2024-02-04T13:20:23;11.80;99.90
23289;DHT22;11813;50.834;4.280;2024-02-04T13:22:49;11.80;99.90
23289;DHT22;11813;50.834;4.280;2024-02-04T13:25:15;11.90;99.90
23289;DHT22;11813;50.834;4.280;2024-02-04T13:27:41;11.90;99.90
23289;DHT22;11813;50.834;4.280;2024-02-04T13:30:07;11.90;99.90
23289;DHT22;11813;50.834;4.280;2024-02-04T13:32:40;11.90;99.90
23289;DHT22;11813;50.834;4.280;2024-02-04T13:35:07;11.90;99.90
23289;DHT22;11813;50.834;4.280;2024-02-04T13:37:54;11.80;99.90
23289;DHT22;11813;50.834;4.280;2024-02-04T13:40:21;11.80;99.90
23289;DHT22;11813;50.834;4.280;2024-02-04T13:42:49;11.80;99.90
23289;DHT22;11813;50.834;4.280;2024-02-04T13:45:15;11.80;99.90
23289;DHT22;11813;50.834;4.280;2024-02-04T13:47:44;11.70;99.90
23289;DHT22;11813;50.834;4.280;2024-02-04T13:50:10;11.70;99.90
23289;DHT22;11813;50.834;4.280;2024-02-04T13:52:36;11.80;99.90
23289;DHT22;11813;50.834;4.280;2024-02-04T13:55:03;11.80;99.90
23289;DHT22;11813;50.834;4.280;2024-02-04T13:57:32;11.80;99.90
23289;DHT22;11813;50.834;4.280;2024-02-04T13:59:58;11.80;99.90
23289;DHT22;11813;50.834;4.280;2024-02-04T14:02:24;11.70;99.90
23289;DHT22;11813;50.834;4.280;2024-02-04T14:04:52;11.60;99.90
23289;DHT22;11813;50.834;4.280;2024-02-04T14:07:18;11.60;99.90
23289;DHT22;11813;50.834;4.280;2024-02-04T14:09:43;11.60;99.90
23289;DHT22;11813;50.834;4.280;2024-02-04T14:12:09;11.70;99.90
23289;DHT22;11813;50.834;4.280;2024-02-04T14:14:37;11.70;99.90
23289;DHT22;11813;50.834;4.280;2024-02-04T14:17:02;11.60;99.90
23289;DHT22;11813;50.834;4.280;2024-02-04T14:19:28;11.60;99.90
23289;DHT22;11813;50.834;4.280;2024-02-04T14:21:54;11.60;99.90
23289;DHT22;11813;50.834;4.280;2024-02-04T14:24:20;11.60;99.90
23289;DHT22;11813;50.834;4.280;2024-02-04T14:26:45;11.60;99.90
23289;DHT22;11813;50.834;4.280;2024-02-04T14:29:11;11.50;99.90
23289;DHT22;11813;50.834;4.280;2024-02-04T14:31:37;11.60;99.90
23289;DHT22;11813;50.834;4.280;2024-02-04T14:34:02;11.60;99.90
23289;DHT22;11813;50.834;4.280;2024-02-04T14:36:28;11.60;99.90
23289;DHT22;11813;50.834;4.280;2024-02-04T14:38:53;11.60;99.90
23289;DHT22;11813;50.834;4.280;2024-02-04T14:41:19;11.60;99.90
23289;DHT22;11813;50.834;4.280;2024-02-04T14:43:45;11.50;99.90
23289;DHT22;11813;50.834;4.280;2024-02-04T14:46:10;11.50;99.90
23289;DHT22;11813;50.834;4.280;2024-02-04T14:48:36;11.60;99.90
23289;DHT22;11813;50.834;4.280;2024-02-04T14:51:05;11.70;99.90
23289;DHT22;11813;50.834;4.280;2024-02-04T14:53:30;11.70;99.90
23289;DHT22;11813;50.834;4.280;2024-02-04T14:55:56;11.70;99.90
23289;DHT22;11813;50.834;4.280;2024-02-04T14:58:22;11.70;99.90
23289;DHT22;11813;50.834;4.280;2024-02-04T15:00:48;11.70;99.90
23289;DHT22;11813;50.834;4.280;2024-02-04T15:03:14;11.80;99.90
23289;DHT22;11813;50.834;4.280;2024-02-04T15:05:43;11.80;99.90
23289;DHT22;11813;50.834;4.280;2024-02-04T15:08:08;11.70;99.90
23289;DHT22;11813;50.834;4.280;2024-02-04T15:10:34;11.70;99.90
23289;DHT22;11813;50.834;4.280;2024-02-04T15:13:00;11.70;99.90
23289;DHT22;11813;50.834;4.280;2024-02-04T15:15:26;11.70;99.90
23289;DHT22;11813;50.834;4.280;2024-02-04T15:17:52;11.70;99.90
23289;DHT22;11813;50.834;4.280;2024-02-04T15:20:18;11.70;99.90
23289;DHT22;11813;50.834;4.280;2024-02-04T15:22:44;11.70;99.90
23289;DHT22;11813;50.834;4.280;2024-02-04T15:25:10;11.70;99.90
23289;DHT22;11813;50.834;4.280;2024-02-04T15:27:38;11.70;99.90
23289;DHT22;11813;50.834;4.280;2024-02-04T15:30:05;11.70;99.90
23289;DHT22;11813;50.834;4.280;2024-02-04T15:32:34;11.80;99.90
23289;DHT22;11813;50.834;4.280;2024-02-04T15:35:00;11.70;99.90
23289;DHT22;11813;50.834;4.280;2024-02-04T15:37:26;11.70;99.90